sensor_id;sensor_type;location;lat;lon;timestamp;pressure;altitude;pressure_sealevel;temperature;humidity
36304;BME280;22335;49.800;8.596;2024-02-21T00:01:39;101445.75;;;11.80;58.92
36304;BME280;22335;49.800;8.596;2024-02-21T00:08:23;101472.19;;;12.01;59.04
36304;BME280;22335;49.800;8.596;2024-02-21T00:15:09;101467.78;;;12.00;59.04
36304;BME280;22335;49.800;8.596;2024-02-21T00:21:52;101458.47;;;12.01;59.13
36304;BME280;22335;49.800;8.596;2024-02-21T00:28:36;101383.19;;;11.61;59.13
36304;BME280;22335;49.800;8.596;2024-02-21T00:35:21;101437.91;;;11.93;59.50
36304;BME280;22335;49.800;8.596;2024-02-21T00:42:04;101418.13;;;11.91;59.39
36304;BME280;22335;49.800;8.596;2024-02-21T00:48:48;101412.38;;;11.88;59.57
36304;BME280;22335;49.800;8.596;2024-02-21T00:55:34;101391.50;;;11.82;59.68
36304;BME280;22335;49.800;8.596;2024-02-21T01:02:17;101381.34;;;11.82;59.56
36304;BME280;22335;49.800;8.596;2024-02-21T01:09:01;101380.50;;;11.76;59.85
36304;BME280;22335;49.800;8.596;2024-02-21T01:15:46;101370.09;;;11.68;60.13
36304;BME280;22335;49.800;8.596;2024-02-21T01:22:30;101372.81;;;11.73;60.13
36304;BME280;22335;49.800;8.596;2024-02-21T01:29:14;101372.56;;;11.75;60.02
36304;BME280;22335;49.800;8.596;2024-02-21T01:35:59;101381.06;;;11.78;60.31
36304;BME280;22335;49.800;8.596;2024-02-21T01:42:42;101383.31;;;11.92;60.09
36304;BME280;22335;49.800;8.596;2024-02-21T01:49:26;101380.34;;;11.98;59.79
36304;BME280;22335;49.800;8.596;2024-02-21T01:56:12;101320.19;;;11.61;60.14
36304;BME280;22335;49.800;8.596;2024-02-21T02:02:56;101371.25;;;11.88;59.94
36304;BME280;22335;49.800;8.596;2024-02-21T02:09:41;101349.28;;;11.83;60.33
36304;BME280;22335;49.800;8.596;2024-02-21T02:16:26;101338.88;;;11.74;60.54
36304;BME280;22335;49.800;8.596;2024-02-21T02:30:01;101304.56;;;11.57;60.68
36304;BME280;22335;49.800;8.596;2024-02-21T02:36:44;101295.22;;;11.47;60.91
36304;BME280;22335;49.800;8.596;2024-02-21T02:43:31;101296.03;;;11.38;61.17
36304;BME280;22335;49.800;8.596;2024-02-21T02:50:15;101289.97;;;11.36;61.14
36304;BME280;22335;49.800;8.596;2024-02-21T02:56:59;101300.13;;;11.45;60.96
36304;BME280;22335;49.800;8.596;2024-02-21T03:03:43;101290.56;;;11.48;61.12
36304;BME280;22335;49.800;8.596;2024-02-21T03:10:28;101281.81;;;11.51;61.08
36304;BME280;22335;49.800;8.596;2024-02-21T03:17:12;101262.09;;;11.49;61.21
36304;BME280;22335;49.800;8.596;2024-02-21T03:23:56;101246.69;;;11.32;61.28
36304;BME280;22335;49.800;8.596;2024-02-21T03:30:40;101252.75;;;11.35;61.74
36304;BME280;22335;49.800;8.596;2024-02-21T03:37:23;101227.50;;;11.22;61.46
36304;BME280;22335;49.800;8.596;2024-02-21T03:44:08;101237.16;;;11.40;61.70
36304;BME280;22335;49.800;8.596;2024-02-21T04:05:55;101253.56;;;11.35;62.02
36304;BME280;22335;49.800;8.596;2024-02-21T04:12:39;101254.13;;;11.37;61.84
36304;BME280;22335;49.800;8.596;2024-02-21T04:19:22;101253.84;;;11.34;62.35
36304;BME280;22335;49.800;8.596;2024-02-21T04:26:07;101224.50;;;11.29;62.39
36304;BME280;22335;49.800;8.596;2024-02-21T04:32:51;101219.56;;;11.26;62.50
36304;BME280;22335;49.800;8.596;2024-02-21T04:39:34;101225.06;;;11.31;62.39
36304;BME280;22335;49.800;8.596;2024-02-21T04:46:19;101201.81;;;11.34;62.52
36304;BME280;22335;49.800;8.596;2024-02-21T04:53:03;101187.53;;;11.26;62.62
36304;BME280;22335;49.800;8.596;2024-02-21T04:59:47;101169.19;;;11.27;62.65
36304;BME280;22335;49.800;8.596;2024-02-21T05:06:32;101110.56;;;11.02;62.47
36304;BME280;22335;49.800;8.596;2024-02-21T05:13:19;101155.22;;;11.39;62.65
36304;BME280;22335;49.800;8.596;2024-02-21T05:20:03;101163.72;;;11.27;62.78
36304;BME280;22335;49.800;8.596;2024-02-21T05:26:48;101150.31;;;11.30;62.95
36304;BME280;22335;49.800;8.596;2024-02-21T05:33:32;101154.16;;;11.45;62.72
36304;BME280;22335;49.800;8.596;2024-02-21T05:40:15;101158.53;;;11.56;62.67
36304;BME280;22335;49.800;8.596;2024-02-21T05:47:00;101150.84;;;11.58;62.42
36304;BME280;22335;49.800;8.596;2024-02-21T05:53:44;101142.63;;;11.58;62.26
36304;BME280;22335;49.800;8.596;2024-02-21T06:00:27;101051.47;;;10.96;62.60
36304;BME280;22335;49.800;8.596;2024-02-21T06:07:12;101137.69;;;11.55;62.38
36304;BME280;22335;49.800;8.596;2024-02-21T06:13:56;101152.22;;;11.66;62.10
36304;BME280;22335;49.800;8.596;2024-02-21T06:20:39;101144.28;;;11.74;61.77
36304;BME280;22335;49.800;8.596;2024-02-21T06:27:24;101135.25;;;11.69;61.93
36304;BME280;22335;49.800;8.596;2024-02-21T06:34:08;101122.91;;;11.51;62.07
36304;BME280;22335;49.800;8.596;2024-02-21T06:40:51;101113.34;;;11.38;62.17
36304;BME280;22335;49.800;8.596;2024-02-21T06:47:37;101096.63;;;11.24;62.31
36304;BME280;22335;49.800;8.596;2024-02-21T06:54:20;101101.84;;;11.16;62.10
36304;BME280;22335;49.800;8.596;2024-02-21T07:01:05;101115.78;;;11.09;62.17
36304;BME280;22335;49.800;8.596;2024-02-21T07:07:50;101109.78;;;11.12;62.17
36304;BME280;22335;49.800;8.596;2024-02-21T07:14:35;101113.06;;;11.24;62.01
36304;BME280;22335;49.800;8.596;2024-02-21T07:21:19;101095.53;;;11.15;62.32
36304;BME280;22335;49.800;8.596;2024-02-21T07:28:04;101095.78;;;11.03;62.52
36304;BME280;22335;49.800;8.596;2024-02-21T07:34:48;101100.44;;;11.08;62.40
36304;BME280;22335;49.800;8.596;2024-02-21T07:41:31;101105.94;;;11.13;62.59
36304;BME280;22335;49.800;8.596;2024-02-21T07:48:17;101105.09;;;11.18;62.43
36304;BME280;22335;49.800;8.596;2024-02-21T07:55:01;101097.72;;;11.23;62.48
36304;BME280;22335;49.800;8.596;2024-02-21T08:01:45;101091.41;;;11.23;62.39
36304;BME280;22335;49.800;8.596;2024-02-21T08:08:29;101088.41;;;11.19;62.23
36304;BME280;22335;49.800;8.596;2024-02-21T08:15:13;101075.28;;;11.21;62.52
36304;BME280;22335;49.800;8.596;2024-02-21T08:21:57;101069.81;;;11.21;62.50
36304;BME280;22335;49.800;8.596;2024-02-21T08:28:42;101058.03;;;11.31;62.41
36304;BME280;22335;49.800;8.596;2024-02-21T08:35:25;101046.22;;;11.41;62.21
36304;BME280;22335;49.800;8.596;2024-02-21T08:42:09;101044.84;;;11.48;61.99
36304;BME280;22335;49.800;8.596;2024-02-21T08:48:54;101035.53;;;11.49;62.46
36304;BME280;22335;49.800;8.596;2024-02-21T08:55:37;101032.25;;;11.47;62.69
36304;BME280;22335;49.800;8.596;2024-02-21T09:02:21;101025.13;;;11.46;62.43
36304;BME280;22335;49.800;8.596;2024-02-21T09:09:06;101024.56;;;11.60;62.14
36304;BME280;22335;49.800;8.596;2024-02-21T09:15:49;101019.84;;;11.70;62.43
36304;BME280;22335;49.800;8.596;2024-02-21T09:22:33;101000.41;;;11.87;62.16
36304;BME280;22335;49.800;8.596;2024-02-21T09:29:18;100985.81;;;12.02;62.04
36304;BME280;22335;49.800;8.596;2024-02-21T09:36:04;100978.91;;;12.10;62.18
36304;BME280;22335;49.800;8.596;2024-02-21T09:42:55;100969.78;;;12.25;62.20
36304;BME280;22335;49.800;8.596;2024-02-21T09:49:47;100977.91;;;12.40;61.78
36304;BME280;22335;49.800;8.596;2024-02-21T09:56:31;100971.50;;;12.55;61.96
36304;BME280;22335;49.800;8.596;2024-02-21T10:03:15;100967.25;;;12.73;61.80
36304;BME280;22335;49.800;8.596;2024-02-21T10:10:03;100895.06;;;12.38;61.60
36304;BME280;22335;49.800;8.596;2024-02-21T10:16:49;100942.47;;;12.83;61.55
36304;BME280;22335;49.800;8.596;2024-02-21T10:23:44;100934.22;;;12.83;60.70
36304;BME280;22335;49.800;8.596;2024-02-21T10:30:30;100932.66;;;12.77;60.76
36304;BME280;22335;49.800;8.596;2024-02-21T10:37:13;100916.69;;;12.79;60.84
36304;BME280;22335;49.800;8.596;2024-02-21T10:43:57;100910.31;;;12.88;60.70
36304;BME280;22335;49.800;8.596;2024-02-21T10:50:55;100889.41;;;12.92;60.75
36304;BME280;22335;49.800;8.596;2024-02-21T10:57:41;100896.25;;;12.95;60.85
36304;BME280;22335;49.800;8.596;2024-02-21T11:04:25;100827.25;;;12.73;60.17
36304;BME280;22335;49.800;8.596;2024-02-21T11:11:12;100858.38;;;13.16;60.79
36304;BME280;22335;49.800;8.596;2024-02-21T11:18:01;100854.03;;;13.39;60.33
36304;BME280;22335;49.800;8.596;2024-02-21T11:24:45;100839.28;;;13.54;59.96
36304;BME280;22335;49.800;8.596;2024-02-21T11:31:39;100838.38;;;13.58;60.47
36304;BME280;22335;49.800;8.596;2024-02-21T11:38:23;100811.81;;;13.73;59.95
36304;BME280;22335;49.800;8.596;2024-02-21T11:45:08;100794.13;;;13.79;59.85
36304;BME280;22335;49.800;8.596;2024-02-21T11:51:59;100786.03;;;13.88;59.35
36304;BME280;22335;49.800;8.596;2024-02-21T11:58:45;100770.09;;;14.03;59.42
36304;BME280;22335;49.800;8.596;2024-02-21T12:05:29;100761.84;;;14.03;59.73
36304;BME280;22335;49.800;8.596;2024-02-21T12:12:20;100738.72;;;14.18;59.18
36304;BME280;22335;49.800;8.596;2024-02-21T12:19:03;100728.91;;;14.31;58.90
36304;BME280;22335;49.800;8.596;2024-02-21T12:25:47;100702.41;;;14.35;58.57
36304;BME280;22335;49.800;8.596;2024-02-21T12:32:32;100688.13;;;14.33;58.36
36304;BME280;22335;49.800;8.596;2024-02-21T12:39:15;100672.75;;;14.32;58.53
36304;BME280;22335;49.800;8.596;2024-02-21T12:45:58;100653.88;;;14.39;58.47
36304;BME280;22335;49.800;8.596;2024-02-21T12:52:45;100644.88;;;14.52;58.08
36304;BME280;22335;49.800;8.596;2024-02-21T12:59:28;100613.34;;;14.31;57.55
36304;BME280;22335;49.800;8.596;2024-02-21T13:06:12;100630.03;;;14.48;57.92
36304;BME280;22335;49.800;8.596;2024-02-21T13:12:57;100629.16;;;14.53;57.72
36304;BME280;22335;49.800;8.596;2024-02-21T13:19:41;100599.75;;;14.48;57.41
36304;BME280;22335;49.800;8.596;2024-02-21T13:26:25;100585.28;;;14.43;57.69
36304;BME280;22335;49.800;8.596;2024-02-21T13:33:10;100561.75;;;14.37;57.80
36304;BME280;22335;49.800;8.596;2024-02-21T13:39:54;100540.16;;;14.30;57.13
36304;BME280;22335;49.800;8.596;2024-02-21T13:46:38;100538.44;;;14.34;57.53
36304;BME280;22335;49.800;8.596;2024-02-21T13:53:23;100522.22;;;14.46;57.10
36304;BME280;22335;49.800;8.596;2024-02-21T14:00:07;100507.63;;;14.46;57.50
36304;BME280;22335;49.800;8.596;2024-02-21T14:06:55;100497.94;;;14.48;57.35
36304;BME280;22335;49.800;8.596;2024-02-21T14:13:39;100483.69;;;14.46;56.90
36304;BME280;22335;49.800;8.596;2024-02-21T14:20:23;100457.41;;;14.40;57.34
36304;BME280;22335;49.800;8.596;2024-02-21T14:27:06;100446.63;;;14.30;56.84
36304;BME280;22335;49.800;8.596;2024-02-21T14:33:51;100423.41;;;14.22;56.35
36304;BME280;22335;49.800;8.596;2024-02-21T14:40:35;100410.91;;;14.16;56.58
36304;BME280;22335;49.800;8.596;2024-02-21T14:47:19;100399.53;;;14.09;56.58
36304;BME280;22335;49.800;8.596;2024-02-21T14:54:04;100329.34;;;13.75;56.58
36304;BME280;22335;49.800;8.596;2024-02-21T15:00:48;100361.97;;;13.91;56.80
36304;BME280;22335;49.800;8.596;2024-02-21T15:07:31;100377.91;;;14.02;56.45
36304;BME280;22335;49.800;8.596;2024-02-21T15:14:17;100348.41;;;13.94;56.45
36304;BME280;22335;49.800;8.596;2024-02-21T15:21:02;100337.00;;;14.01;56.33
36304;BME280;22335;49.800;8.596;2024-02-21T15:27:46;100315.72;;;13.93;56.15
36304;BME280;22335;49.800;8.596;2024-02-21T15:34:32;100302.75;;;13.84;56.10
36304;BME280;22335;49.800;8.596;2024-02-21T15:41:16;100284.47;;;13.66;56.12
36304;BME280;22335;49.800;8.596;2024-02-21T15:48:04;100287.78;;;13.77;56.27
36304;BME280;22335;49.800;8.596;2024-02-21T15:54:49;100234.59;;;13.59;56.18
36304;BME280;22335;49.800;8.596;2024-02-21T16:01:33;100268.03;;;13.75;56.14
36304;BME280;22335;49.800;8.596;2024-02-21T16:08:17;100268.25;;;13.78;56.15
36304;BME280;22335;49.800;8.596;2024-02-21T16:15:03;100246.66;;;13.72;55.72
36304;BME280;22335;49.800;8.596;2024-02-21T16:21:48;100226.94;;;13.70;55.81
36304;BME280;22335;49.800;8.596;2024-02-21T16:28:33;100179.63;;;13.59;55.45
36304;BME280;22335;49.800;8.596;2024-02-21T16:35:17;100184.91;;;13.33;55.33
36304;BME280;22335;49.800;8.596;2024-02-21T16:42:01;100179.03;;;13.26;54.99
36304;BME280;22335;49.800;8.596;2024-02-21T16:48:45;100171.28;;;13.28;54.80
36304;BME280;22335;49.800;8.596;2024-02-21T16:55:30;100159.56;;;13.22;54.69
36304;BME280;22335;49.800;8.596;2024-02-21T17:02:15;100151.47;;;13.17;55.19
36304;BME280;22335;49.800;8.596;2024-02-21T17:08:59;100147.50;;;13.09;54.85
36304;BME280;22335;49.800;8.596;2024-02-21T17:15:44;100136.94;;;13.03;54.86
36304;BME280;22335;49.800;8.596;2024-02-21T17:22:27;100140.81;;;13.02;54.78
36304;BME280;22335;49.800;8.596;2024-02-21T17:29:12;100136.16;;;13.02;55.08
36304;BME280;22335;49.800;8.596;2024-02-21T17:35:58;100124.34;;;13.02;54.70
36304;BME280;22335;49.800;8.596;2024-02-21T17:42:41;100110.81;;;13.05;54.70
36304;BME280;22335;49.800;8.596;2024-02-21T17:49:25;100106.66;;;13.08;54.88
36304;BME280;22335;49.800;8.596;2024-02-21T17:56:10;100104.19;;;13.06;54.46
36304;BME280;22335;49.800;8.596;2024-02-21T18:02:54;100099.72;;;13.10;54.65
36304;BME280;22335;49.800;8.596;2024-02-21T18:09:37;100089.22;;;13.12;54.46
36304;BME280;22335;49.800;8.596;2024-02-21T18:16:22;100080.56;;;13.19;54.81
36304;BME280;22335;49.800;8.596;2024-02-21T18:23:06;100055.66;;;13.15;54.96
36304;BME280;22335;49.800;8.596;2024-02-21T18:29:50;100032.69;;;13.11;54.73
36304;BME280;22335;49.800;8.596;2024-02-21T18:36:35;100039.63;;;13.09;54.78
36304;BME280;22335;49.800;8.596;2024-02-21T18:43:19;100053.84;;;13.11;54.86
36304;BME280;22335;49.800;8.596;2024-02-21T18:50:03;99985.53;;;12.87;55.13
36304;BME280;22335;49.800;8.596;2024-02-21T18:56:48;100027.38;;;13.15;54.85
36304;BME280;22335;49.800;8.596;2024-02-21T19:03:32;99953.94;;;12.76;54.86
36304;BME280;22335;49.800;8.596;2024-02-21T19:10:16;100007.28;;;13.06;55.12
36304;BME280;22335;49.800;8.596;2024-02-21T19:17:01;99999.50;;;12.99;54.97
36304;BME280;22335;49.800;8.596;2024-02-21T19:23:44;100008.53;;;13.00;55.10
36304;BME280;22335;49.800;8.596;2024-02-21T19:30:28;99988.00;;;12.97;55.25
36304;BME280;22335;49.800;8.596;2024-02-21T19:37:13;99940.47;;;12.65;55.23
36304;BME280;22335;49.800;8.596;2024-02-21T19:43:56;99961.56;;;13.01;54.89
36304;BME280;22335;49.800;8.596;2024-02-21T19:50:40;99942.84;;;13.03;54.92
36304;BME280;22335;49.800;8.596;2024-02-21T19:57:25;99916.34;;;12.99;54.91
36304;BME280;22335;49.800;8.596;2024-02-21T20:04:09;99930.94;;;13.08;55.08
36304;BME280;22335;49.800;8.596;2024-02-21T20:10:54;99909.59;;;13.05;55.04
36304;BME280;22335;49.800;8.596;2024-02-21T20:17:39;99886.44;;;12.97;54.97
36304;BME280;22335;49.800;8.596;2024-02-21T20:24:27;99871.22;;;12.91;55.39
36304;BME280;22335;49.800;8.596;2024-02-21T20:31:12;99857.34;;;12.87;55.10
36304;BME280;22335;49.800;8.596;2024-02-21T20:38:02;99824.09;;;12.89;55.51
36304;BME280;22335;49.800;8.596;2024-02-21T20:44:47;99809.38;;;12.85;56.04
36304;BME280;22335;49.800;8.596;2024-02-21T20:51:30;99795.94;;;12.75;56.39
36304;BME280;22335;49.800;8.596;2024-02-21T20:58:15;99775.88;;;12.65;56.37
36304;BME280;22335;49.800;8.596;2024-02-21T21:04:58;99762.91;;;12.57;56.84
36304;BME280;22335;49.800;8.596;2024-02-21T21:11:43;99763.69;;;12.49;56.91
36304;BME280;22335;49.800;8.596;2024-02-21T21:18:29;99755.41;;;12.40;57.62
36304;BME280;22335;49.800;8.596;2024-02-21T21:25:13;99756.78;;;12.29;57.94
36304;BME280;22335;49.800;8.596;2024-02-21T21:31:56;99748.38;;;12.26;58.60
36304;BME280;22335;49.800;8.596;2024-02-21T21:38:41;99734.31;;;12.18;58.76
36304;BME280;22335;49.800;8.596;2024-02-21T21:45:29;99724.59;;;12.12;59.21
36304;BME280;22335;49.800;8.596;2024-02-21T21:52:13;99734.56;;;12.08;59.67
36304;BME280;22335;49.800;8.596;2024-02-21T21:58:58;99719.38;;;12.02;60.09
36304;BME280;22335;49.800;8.596;2024-02-21T22:05:44;99710.75;;;11.95;60.67
36304;BME280;22335;49.800;8.596;2024-02-21T22:12:28;99701.75;;;11.94;60.94
36304;BME280;22335;49.800;8.596;2024-02-21T22:19:13;99688.84;;;11.95;61.15
36304;BME280;22335;49.800;8.596;2024-02-21T22:25:56;99671.91;;;11.93;61.55
36304;BME280;22335;49.800;8.596;2024-02-21T22:32:40;99665.94;;;11.91;61.97
36304;BME280;22335;49.800;8.596;2024-02-21T22:39:25;99651.72;;;11.89;62.46
36304;BME280;22335;49.800;8.596;2024-02-21T22:46:10;99647.25;;;11.93;62.57
36304;BME280;22335;49.800;8.596;2024-02-21T22:52:53;99631.16;;;12.00;62.76
36304;BME280;22335;49.800;8.596;2024-02-21T22:59:38;99617.81;;;12.07;62.55
36304;BME280;22335;49.800;8.596;2024-02-21T23:06:21;99610.91;;;12.10;63.03
36304;BME280;22335;49.800;8.596;2024-02-21T23:13:05;99537.31;;;11.63;63.37
36304;BME280;22335;49.800;8.596;2024-02-21T23:19:50;99588.13;;;12.00;64.23
36304;BME280;22335;49.800;8.596;2024-02-21T23:26:34;99574.25;;;11.97;64.32
36304;BME280;22335;49.800;8.596;2024-02-21T23:33:17;99570.56;;;12.02;64.60
36304;BME280;22335;49.800;8.596;2024-02-21T23:40:02;99547.00;;;12.00;64.57
36304;BME280;22335;49.800;8.596;2024-02-21T23:46:47;99543.81;;;12.07;65.10
36304;BME280;22335;49.800;8.596;2024-02-21T23:53:31;99529.97;;;12.12;65.29
